createdAt,value
2022-08-03T00:00:40.836Z,99969.47
2022-08-03T00:03:07.905Z,99972.31
2022-08-03T00:05:34.549Z,99979.91
2022-08-03T00:08:01.353Z,99973.72
2022-08-03T00:10:28.226Z,99976.97
2022-08-03T00:12:55.391Z,99981.44
2022-08-03T00:15:22.044Z,99969.50
2022-08-03T00:17:58.842Z,99976.25
2022-08-03T00:20:26.117Z,99983.94
2022-08-03T00:22:52.750Z,99973.62
2022-08-03T00:25:19.577Z,99973.28
2022-08-03T00:27:46.222Z,99978.13
2022-08-03T00:30:15.219Z,99984.06
2022-08-03T00:33:03.600Z,99986.91
2022-08-03T00:35:51.830Z,99984.81
2022-08-03T00:38:19.941Z,99985.50
2022-08-03T00:40:47.109Z,99985.94
2022-08-03T00:43:13.772Z,99989.59
2022-08-03T00:45:42.306Z,99995.47
2022-08-03T00:48:29.393Z,99989.47
2022-08-03T00:51:14.031Z,99990.50
2022-08-03T00:53:41.277Z,99999.38
2022-08-03T00:56:07.985Z,99997.53
2022-08-03T00:58:34.757Z,99995.94
2022-08-03T01:01:01.499Z,99989.75
2022-08-03T01:03:28.477Z,99994.19
2022-08-03T01:12:29.786Z,100000.81
2022-08-03T01:15:05.710Z,99998.12
2022-08-03T01:17:56.518Z,99992.66
2022-08-03T01:20:27.250Z,99993.69
2022-08-03T01:23:12.300Z,99995.59
2022-08-03T01:26:32.889Z,100000.78
2022-08-03T01:29:10.995Z,100002.53
2022-08-03T01:32:58.564Z,100003.91
2022-08-03T01:34:34.897Z,99997.81
2022-08-03T01:37:06.111Z,100003.13
2022-08-03T01:39:33.318Z,99995.09
2022-08-03T01:45:33.844Z,99997.75
2022-08-03T01:48:02.794Z,99994.19
2022-08-03T01:50:31.938Z,99994.78
2022-08-03T01:52:59.244Z,99987.28
2022-08-03T01:55:29.759Z,99995.34
2022-08-03T01:58:05.982Z,99985.19
2022-08-03T02:00:46.929Z,99988.84
2022-08-03T02:03:15.570Z,99990.62
2022-08-03T02:05:45.379Z,99993.09
2022-08-03T02:08:14.110Z,99991.56
2022-08-03T02:10:43.346Z,99992.19
2022-08-03T02:13:10.851Z,99992.25
2022-08-03T02:16:05.893Z,100002.38
2022-08-03T02:18:58.299Z,99991.31
2022-08-03T02:21:57.112Z,99994.34
2022-08-03T02:24:13.381Z,99996.34
2022-08-03T02:26:41.493Z,99995.34
2022-08-03T02:29:15.280Z,99993.87
2022-08-03T02:31:45.311Z,99996.62
2022-08-03T02:34:29.543Z,100003.63
2022-08-03T02:37:00.336Z,99998.22
2022-08-03T02:39:31.443Z,100000.44
2022-08-03T02:42:04.089Z,100002.84
2022-08-03T02:44:33.660Z,100001.75
2022-08-03T02:47:10.986Z,99997.41
2022-08-03T02:50:13.179Z,100006.19
2022-08-03T02:53:29.461Z,100004.97
2022-08-03T02:55:57.261Z,100005.94
2022-08-03T02:58:24.762Z,100001.47
2022-08-03T03:00:53.247Z,100005.78
2022-08-03T03:03:22.176Z,100000.66
2022-08-03T03:05:56.453Z,100000.28
2022-08-03T03:08:46.696Z,100005.66
2022-08-03T03:11:15.525Z,100004.06
2022-08-03T03:13:44.264Z,100000.97
2022-08-03T03:16:13.678Z,100003.69
2022-08-03T03:18:42.605Z,100009.28
2022-08-03T03:21:10.887Z,99996.41
2022-08-03T03:24:24.407Z,100003.19
2022-08-03T03:30:03.688Z,100004.06
2022-08-03T03:32:30.688Z,100002.78
2022-08-03T03:34:59.288Z,100002.94
2022-08-03T03:37:28.718Z,100004.41
2022-08-03T03:39:55.580Z,100006.91
2022-08-03T03:42:22.517Z,100007.19
2022-08-03T03:44:58.233Z,100003.66
2022-08-03T03:47:32.276Z,100007.50
2022-08-03T03:49:59.738Z,100013.94
2022-08-03T03:52:26.399Z,100007.63
2022-08-03T03:54:55.403Z,100012.63
2022-08-03T03:57:26.208Z,100005.88
2022-08-03T04:00:11.683Z,100013.53
2022-08-03T04:02:54.754Z,100015.44
2022-08-03T04:05:42.964Z,100016.31
2022-08-03T04:08:37.565Z,100015.12
2022-08-03T04:11:19.147Z,100015.28
2022-08-03T04:13:56.950Z,100015.69
2022-08-03T04:16:30.500Z,100022.34
2022-08-03T04:19:23.101Z,100023.81
2022-08-03T04:21:57.253Z,100026.59
2022-08-03T04:24:27.174Z,100028.19
2022-08-03T04:26:55.134Z,100044.19
2022-08-03T04:29:24.210Z,100043.81
2022-08-03T04:31:52.386Z,100033.53
2022-08-03T04:34:41.104Z,100038.00
2022-08-03T04:37:48.015Z,100036.09
2022-08-03T04:40:47.304Z,100041.53
2022-08-03T04:43:16.850Z,100037.34
2022-08-03T04:45:48.436Z,100039.59
2022-08-03T04:48:15.897Z,100047.16
2022-08-03T04:53:38.184Z,100046.50
2022-08-03T04:56:06.053Z,100050.25
2022-08-03T04:58:36.006Z,100058.03
2022-08-03T05:01:03.798Z,100057.56
2022-08-03T05:03:32.133Z,100064.69
2022-08-03T05:06:01.953Z,100067.37
2022-08-03T05:08:46.125Z,100064.94
2022-08-03T05:11:15.490Z,100075.56
2022-08-03T05:13:43.440Z,100075.56
2022-08-03T05:16:11.153Z,100068.91
2022-08-03T05:18:38.087Z,100067.53
2022-08-03T05:21:05.092Z,100073.31
2022-08-03T05:23:31.819Z,100075.22
2022-08-03T05:25:58.452Z,100083.34
2022-08-03T05:28:25.186Z,100080.19
2022-08-03T05:30:51.830Z,100083.91
2022-08-03T05:33:18.439Z,100079.19
2022-08-03T05:36:02.676Z,100084.03
2022-08-03T05:38:35.054Z,100091.84
2022-08-03T05:41:22.723Z,100086.03
2022-08-03T05:43:52.593Z,100087.38
2022-08-03T05:46:20.897Z,100092.56
2022-08-03T05:48:47.789Z,100096.19
2022-08-03T05:51:14.476Z,100089.38
2022-08-03T05:53:42.433Z,100098.78
2022-08-03T05:56:14.041Z,100099.13
2022-08-03T05:58:48.396Z,100103.00
2022-08-03T06:01:16.277Z,100107.41
2022-08-03T06:03:43.169Z,100100.50
2022-08-03T06:06:11.427Z,100104.28
2022-08-03T06:08:38.367Z,100109.59
2022-08-03T06:11:05.066Z,100120.03
2022-08-03T06:13:33.815Z,100115.37
2022-08-03T06:16:01.748Z,100117.38
2022-08-03T06:18:28.434Z,100115.41
2022-08-03T06:20:55.215Z,100120.75
2022-08-03T06:23:22.357Z,100120.19
2022-08-03T06:25:49.061Z,100122.28
2022-08-03T06:31:03.697Z,100130.16
2022-08-03T06:33:48.529Z,100119.16
2022-08-03T06:36:20.546Z,100126.19
2022-08-03T06:38:47.478Z,100120.66
2022-08-03T06:41:14.096Z,100127.38
2022-08-03T06:44:03.187Z,100127.28
2022-08-03T06:46:27.556Z,100132.19
2022-08-03T06:48:55.075Z,100135.41
2022-08-03T06:52:03.997Z,100136.88
2022-08-03T06:54:12.371Z,100131.31
2022-08-03T06:56:39.304Z,100142.78
2022-08-03T06:59:05.907Z,100132.94
2022-08-03T07:01:32.583Z,100140.81
2022-08-03T07:04:00.589Z,100137.50
2022-08-03T07:06:27.384Z,100136.72
2022-08-03T07:08:58.964Z,100139.59
2022-08-03T07:11:26.667Z,100140.75
2022-08-03T07:13:53.363Z,100142.41
2022-08-03T07:16:28.028Z,100136.81
2022-08-03T07:18:54.745Z,100139.78
2022-08-03T07:21:21.376Z,100143.72
2022-08-03T07:23:48.041Z,100139.19
2022-08-03T07:26:14.759Z,100138.84
2022-08-03T07:28:41.424Z,100136.00
2022-08-03T07:31:08.056Z,100137.47
2022-08-03T07:33:34.680Z,100138.25
2022-08-03T07:36:01.829Z,100140.28
2022-08-03T07:38:37.633Z,100139.91
2022-08-03T07:41:04.253Z,100141.84
2022-08-03T07:43:30.843Z,100130.69
2022-08-03T07:45:57.455Z,100130.69
2022-08-03T07:48:24.132Z,100128.69
2022-08-03T07:50:50.849Z,100130.66
2022-08-03T07:53:47.163Z,100127.41
2022-08-03T07:56:34.858Z,100137.84
2022-08-03T07:59:02.970Z,100120.91
2022-08-03T08:01:29.929Z,100121.38
2022-08-03T08:03:56.655Z,100120.97
2022-08-03T08:06:23.314Z,100125.34
2022-08-03T08:08:50.294Z,100126.06
2022-08-03T08:11:29.266Z,100134.66
2022-08-03T08:13:55.910Z,100131.84
2022-08-03T08:16:22.529Z,100122.09
2022-08-03T08:18:49.143Z,100137.03
2022-08-03T08:21:15.733Z,100131.47
2022-08-03T08:23:46.193Z,100128.25
2022-08-03T08:26:20.377Z,100131.84
2022-08-03T08:29:31.354Z,100126.56
2022-08-03T08:32:18.657Z,100129.81
2022-08-03T08:34:45.455Z,100130.88
2022-08-03T08:37:12.109Z,100123.22
2022-08-03T08:39:38.941Z,100128.50
2022-08-03T08:42:05.585Z,100132.94
2022-08-03T08:44:32.567Z,100126.09
2022-08-03T08:47:08.171Z,100119.06
2022-08-03T08:49:38.639Z,100133.31
2022-08-03T08:52:11.723Z,100127.00
2022-08-03T08:55:04.067Z,100129.16
2022-08-03T08:57:59.261Z,100134.12
2022-08-03T09:00:26.091Z,100118.75
2022-08-03T09:03:14.678Z,100118.25
2022-08-03T09:06:16.993Z,100118.03
2022-08-03T09:08:43.814Z,100117.69
2022-08-03T09:11:11.992Z,100115.88
2022-08-03T09:13:39.298Z,100118.84
2022-08-03T09:16:14.682Z,100119.72
2022-08-03T09:18:43.422Z,100110.97
2022-08-03T09:21:32.801Z,100113.56
2022-08-03T09:24:04.819Z,100111.72
2022-08-03T09:26:34.361Z,100115.47
2022-08-03T09:29:14.754Z,100119.78
2022-08-03T09:31:46.959Z,100106.75
2022-08-03T09:34:18.069Z,100104.81
2022-08-03T09:36:47.259Z,100108.31
2022-08-03T09:39:19.391Z,100112.34
2022-08-03T09:42:03.738Z,100106.06
2022-08-03T09:44:38.611Z,100105.81
2022-08-03T09:47:06.296Z,100094.69
2022-08-03T09:49:33.435Z,100102.28
2022-08-03T09:52:38.495Z,100112.91
2022-08-03T09:56:30.796Z,100094.91
2022-08-03T09:58:09.226Z,100091.25
2022-08-03T10:01:05.443Z,100095.81
2022-08-03T10:03:36.056Z,100089.97
2022-08-03T10:06:22.672Z,100096.28
2022-08-03T10:09:10.248Z,100080.87
2022-08-03T10:11:42.156Z,100079.16
2022-08-03T10:14:19.453Z,100075.25
2022-08-03T10:16:47.752Z,100081.66
2022-08-03T10:19:15.690Z,100073.25
2022-08-03T10:21:49.735Z,100076.62
2022-08-03T10:24:21.072Z,100073.09
2022-08-03T10:26:49.808Z,100072.44
2022-08-03T10:29:27.595Z,100067.84
2022-08-03T10:31:58.746Z,100064.75
2022-08-03T10:34:35.107Z,100062.38
2022-08-03T10:37:12.541Z,100057.69
2022-08-03T10:39:53.337Z,100057.75
2022-08-03T10:42:27.177Z,100060.66
2022-08-03T10:45:07.720Z,100054.88
2022-08-03T10:47:36.765Z,100054.44
2022-08-03T10:50:04.276Z,100043.09
2022-08-03T10:55:58.279Z,100040.31
2022-08-03T10:58:37.466Z,100041.00
2022-08-03T11:01:58.509Z,100032.56
2022-08-03T11:04:26.670Z,100028.31
2022-08-03T11:07:24.932Z,100028.88
2022-08-03T11:10:30.000Z,100028.72
2022-08-03T11:13:08.099Z,100032.72
2022-08-03T11:15:36.055Z,100018.44
2022-08-03T11:18:13.170Z,100013.53
2022-08-03T11:20:48.375Z,100019.41
2022-08-03T11:23:17.131Z,100015.47
2022-08-03T11:29:36.338Z,100011.97
2022-08-03T11:32:02.998Z,100014.69
2022-08-03T11:34:30.082Z,99999.59
2022-08-03T11:37:23.474Z,100009.38
2022-08-03T11:39:53.083Z,100003.00
2022-08-03T11:42:22.244Z,99993.19
2022-08-03T11:45:10.729Z,99995.09
2022-08-03T11:47:51.188Z,99991.59
2022-08-03T11:50:19.962Z,99986.22
2022-08-03T11:52:47.558Z,99986.53
2022-08-03T11:55:16.280Z,99981.22
2022-08-03T11:59:18.874Z,99993.19
2022-08-03T12:00:58.969Z,99987.03
2022-08-03T12:04:06.873Z,99991.28
2022-08-03T12:06:53.533Z,99982.31
2022-08-03T12:09:21.362Z,99983.94
2022-08-03T12:12:00.664Z,99972.84
2022-08-03T12:14:50.296Z,99977.66
2022-08-03T12:17:16.171Z,99969.47
2022-08-03T12:19:58.046Z,99971.97
2022-08-03T12:22:42.472Z,99972.59
2022-08-03T12:25:09.911Z,99971.22
2022-08-03T12:27:37.039Z,99974.28
2022-08-03T12:30:04.704Z,99968.25
2022-08-03T12:32:31.725Z,99968.47
2022-08-03T12:35:07.866Z,99963.72
2022-08-03T12:41:12.158Z,99958.06
2022-08-03T12:43:51.710Z,99954.72
2022-08-03T12:46:19.426Z,99954.72
2022-08-03T12:49:05.870Z,99949.78
2022-08-03T12:51:38.972Z,99948.84
2022-08-03T12:54:24.671Z,99942.31
2022-08-03T12:57:03.068Z,99948.25
2022-08-03T12:59:53.206Z,99946.69
2022-08-03T13:02:26.010Z,99947.63
2022-08-03T13:04:54.804Z,99941.53
2022-08-03T13:07:22.896Z,99934.81
2022-08-03T13:10:27.714Z,99941.06
2022-08-03T13:13:42.683Z,99938.31
2022-08-03T13:16:09.294Z,99937.41
2022-08-03T13:18:35.979Z,99936.66
2022-08-03T13:21:02.647Z,99935.50
2022-08-03T13:23:29.248Z,99934.59
2022-08-03T13:25:56.329Z,99926.19
2022-08-03T13:28:42.032Z,99920.25
2022-08-03T13:31:08.701Z,99920.59
2022-08-03T13:33:35.360Z,99921.75
2022-08-03T13:36:02.061Z,99916.53
2022-08-03T13:38:28.947Z,99912.97
2022-08-03T13:40:55.700Z,99909.09
2022-08-03T13:43:37.847Z,99918.66
2022-08-03T13:46:22.956Z,99914.59
2022-08-03T13:49:09.377Z,99913.03
2022-08-03T13:51:36.027Z,99911.78
2022-08-03T13:54:02.748Z,99907.50
2022-08-03T13:56:30.249Z,99905.12
2022-08-03T13:58:57.467Z,99899.91
2022-08-03T14:01:54.217Z,99893.50
2022-08-03T14:04:21.928Z,99894.50
2022-08-03T14:06:49.316Z,99893.34
2022-08-03T14:09:16.573Z,99890.53
2022-08-03T14:12:04.099Z,99886.84
2022-08-03T14:14:30.666Z,99887.25
2022-08-03T14:16:57.269Z,99892.50
2022-08-03T14:19:53.446Z,99875.56
2022-08-03T14:22:36.889Z,99875.34
2022-08-03T14:25:03.770Z,99874.47
2022-08-03T14:27:30.780Z,99867.91
2022-08-03T14:29:59.872Z,99868.34
2022-08-03T14:32:27.333Z,99878.63
2022-08-03T14:34:53.942Z,99866.97
2022-08-03T14:37:39.227Z,99864.06
2022-08-03T14:40:06.745Z,99867.22
2022-08-03T14:42:33.408Z,99867.41
2022-08-03T14:45:04.667Z,99868.88
2022-08-03T14:47:34.025Z,99860.84
2022-08-03T14:50:37.582Z,99852.59
2022-08-03T14:56:34.803Z,99852.06
2022-08-03T14:59:11.892Z,99846.81
2022-08-03T15:02:06.335Z,99849.44
2022-08-03T15:04:25.151Z,99847.81
2022-08-03T15:06:51.823Z,99851.69
2022-08-03T15:09:23.904Z,99849.69
2022-08-03T15:12:09.989Z,99853.22
2022-08-03T15:14:37.896Z,99849.56
2022-08-03T15:17:04.813Z,99849.16
2022-08-03T15:20:02.750Z,99843.19
2022-08-03T15:22:20.624Z,99841.56
2022-08-03T15:24:47.676Z,99838.06
2022-08-03T15:28:03.320Z,99833.81
2022-08-03T15:31:24.611Z,99839.84
2022-08-03T15:33:51.761Z,99824.25
2022-08-03T15:36:19.165Z,99832.87
2022-08-03T15:38:46.534Z,99835.00
2022-08-03T15:41:16.202Z,99835.34
2022-08-03T15:43:47.813Z,99840.69
2022-08-03T15:46:38.912Z,99829.09
2022-08-03T15:49:05.533Z,99835.59
2022-08-03T15:51:32.156Z,99828.59
2022-08-03T15:53:58.827Z,99828.69
2022-08-03T15:56:27.129Z,99824.28
2022-08-03T15:59:09.156Z,99825.19
2022-08-03T16:02:11.132Z,99831.97
2022-08-03T16:04:57.052Z,99825.06
2022-08-03T16:08:13.214Z,99833.81
2022-08-03T16:10:40.708Z,99824.53
2022-08-03T16:13:07.708Z,99827.09
2022-08-03T16:15:38.542Z,99827.16
2022-08-03T16:18:08.429Z,99825.06
2022-08-03T16:20:35.603Z,99821.84
2022-08-03T16:23:10.656Z,99822.25
2022-08-03T16:25:40.251Z,99823.81
2022-08-03T16:28:13.557Z,99825.91
2022-08-03T16:30:42.356Z,99826.34
2022-08-03T16:33:17.051Z,99823.09
2022-08-03T16:35:45.933Z,99819.53
2022-08-03T16:38:16.776Z,99816.78
2022-08-03T16:40:47.211Z,99813.50
2022-08-03T16:43:17.889Z,99816.16
2022-08-03T16:45:49.123Z,99820.25
2022-08-03T16:48:16.864Z,99807.50
2022-08-03T16:50:44.346Z,99813.22
2022-08-03T16:53:17.102Z,99811.53
2022-08-03T16:55:54.013Z,99815.97
2022-08-03T16:58:41.111Z,99815.69
2022-08-03T17:01:21.600Z,99810.63
2022-08-03T17:04:01.224Z,99820.78
2022-08-03T17:06:36.344Z,99826.59
2022-08-03T17:09:09.933Z,99825.72
2022-08-03T17:11:46.638Z,99828.63
2022-08-03T17:14:16.695Z,99833.53
2022-08-03T17:16:52.181Z,99839.25
2022-08-03T17:19:23.502Z,99832.87
2022-08-03T17:22:15.888Z,99838.69
2022-08-03T17:24:46.916Z,99838.69
2022-08-03T17:28:50.814Z,99842.94
2022-08-03T17:30:15.761Z,99845.22
2022-08-03T17:32:56.883Z,99844.56
2022-08-03T17:35:24.789Z,99848.84
2022-08-03T17:38:06.686Z,99845.62
2022-08-03T17:40:34.528Z,99851.34
2022-08-03T17:44:13.938Z,99846.22
2022-08-03T17:45:52.915Z,99851.09
2022-08-03T17:48:25.261Z,99852.81
2022-08-03T17:50:59.510Z,99852.16
2022-08-03T17:53:53.699Z,99854.69
2022-08-03T17:56:48.985Z,99855.87
2022-08-03T17:59:51.444Z,99855.66
2022-08-03T18:03:00.096Z,99854.56
2022-08-03T18:06:10.439Z,99855.47
2022-08-03T18:10:05.884Z,99866.53
2022-08-03T18:12:37.165Z,99860.53
2022-08-03T18:15:08.462Z,99864.31
2022-08-03T18:18:01.950Z,99871.03
2022-08-03T18:20:33.055Z,99867.56
2022-08-03T18:23:08.999Z,99867.72
2022-08-03T18:25:44.917Z,99881.47
2022-08-03T18:28:24.531Z,99881.53
2022-08-03T18:30:55.282Z,99878.31
2022-08-03T18:34:19.211Z,99880.06
2022-08-03T18:36:29.483Z,99879.00
2022-08-03T18:38:58.564Z,99882.06
2022-08-03T18:41:32.735Z,99883.44
2022-08-03T18:44:54.388Z,99884.75
2022-08-03T18:47:57.083Z,99884.34
2022-08-03T18:50:49.585Z,99896.03
2022-08-03T18:53:21.173Z,99896.53
2022-08-03T18:56:02.268Z,99894.56
2022-08-03T18:58:46.107Z,99898.62
2022-08-03T19:02:00.132Z,99897.44
2022-08-03T19:04:47.388Z,99900.34
2022-08-03T19:07:23.256Z,99900.16
2022-08-03T19:12:57.384Z,99913.44
2022-08-03T19:18:52.570Z,99912.66
2022-08-03T19:21:44.340Z,99907.78
2022-08-03T19:24:12.914Z,99907.38
2022-08-03T19:26:41.385Z,99913.44
2022-08-03T19:29:15.059Z,99915.91
2022-08-03T19:31:59.686Z,99912.81
2022-08-03T19:37:15.398Z,99908.87
2022-08-03T19:39:43.155Z,99918.56
2022-08-03T19:42:22.777Z,99919.44
2022-08-03T19:44:59.363Z,99927.88
2022-08-03T19:47:42.136Z,99923.94
2022-08-03T19:50:14.301Z,99923.88
2022-08-03T19:52:46.535Z,99930.72
2022-08-03T19:55:15.108Z,99936.34
2022-08-03T19:57:49.158Z,99935.97
2022-08-03T20:00:20.139Z,99935.53
2022-08-03T20:02:53.815Z,99938.38
2022-08-03T20:05:20.776Z,99938.78
2022-08-03T20:07:49.922Z,99936.78
2022-08-03T20:10:19.078Z,99935.56
2022-08-03T20:12:46.854Z,99940.41
2022-08-03T20:15:13.976Z,99934.38
2022-08-03T20:17:54.832Z,99938.41
2022-08-03T20:20:31.646Z,99936.78
2022-08-03T20:23:00.633Z,99930.78
2022-08-03T20:25:56.986Z,99931.97
2022-08-03T20:28:50.224Z,99933.59
2022-08-03T20:31:20.101Z,99937.59
2022-08-03T20:33:49.266Z,99923.59
2022-08-03T20:36:17.926Z,99927.56
2022-08-03T20:38:47.366Z,99930.78
2022-08-03T20:41:15.751Z,99935.59
2022-08-03T20:43:42.414Z,99934.00
2022-08-03T20:46:32.133Z,99929.22
2022-08-03T20:48:58.972Z,99937.59
2022-08-03T20:51:50.578Z,99937.63
2022-08-03T20:54:22.900Z,99930.81
2022-08-03T20:57:04.384Z,99927.19
2022-08-03T20:59:50.368Z,99931.59
2022-08-03T21:02:29.718Z,99927.19
2022-08-03T21:05:03.453Z,99933.59
2022-08-03T21:08:03.779Z,99922.78
2022-08-03T21:10:29.124Z,99922.00
2022-08-03T21:13:09.654Z,99918.69
2022-08-03T21:16:12.178Z,99934.38
2022-08-03T21:18:46.358Z,99934.75
2022-08-03T21:21:16.214Z,99935.53
2022-08-03T21:23:48.640Z,99941.50
2022-08-03T21:26:20.192Z,99937.06
2022-08-03T21:28:48.843Z,99938.66
2022-08-03T21:31:24.463Z,99944.28
2022-08-03T21:33:58.098Z,99943.91
2022-08-03T21:36:27.450Z,99945.50
2022-08-03T21:38:55.875Z,99943.09
2022-08-03T21:41:24.893Z,99947.09
2022-08-03T21:43:51.584Z,99957.53
2022-08-03T21:46:19.964Z,99960.69
2022-08-03T21:48:54.250Z,99961.47
2022-08-03T21:51:24.402Z,99961.91
2022-08-03T21:54:02.491Z,99967.47
2022-08-03T21:56:41.923Z,99961.91
2022-08-03T21:59:17.417Z,99963.53
2022-08-03T22:01:48.908Z,99963.84
2022-08-03T22:04:50.910Z,99962.69
2022-08-03T22:07:07.884Z,99969.47
2022-08-03T22:09:35.648Z,99965.44
2022-08-03T22:12:11.775Z,99967.06
2022-08-03T22:14:41.205Z,99969.03
2022-08-03T22:17:08.004Z,99969.84
2022-08-03T22:19:38.313Z,99967.75
2022-08-03T22:22:07.726Z,99972.47
2022-08-03T22:24:36.765Z,99964.28
2022-08-03T22:27:22.603Z,99969.53
2022-08-03T22:29:50.978Z,99976.75
2022-08-03T22:32:17.695Z,99977.50
2022-08-03T22:34:46.881Z,99974.28
2022-08-03T22:37:19.348Z,99973.84
2022-08-03T22:39:46.780Z,99972.97
2022-08-03T22:42:14.066Z,99979.88
2022-08-03T22:44:40.779Z,99975.31
2022-08-03T22:47:11.643Z,99975.75
2022-08-03T22:49:38.648Z,99976.16
2022-08-03T22:52:07.476Z,99977.38
2022-08-03T22:54:35.558Z,99979.31
2022-08-03T22:57:02.269Z,99981.28
2022-08-03T22:59:40.195Z,99979.22
2022-08-03T23:02:20.435Z,99980.41
2022-08-03T23:04:55.074Z,99982.00
2022-08-03T23:07:28.450Z,99981.56
2022-08-03T23:09:56.429Z,99988.63
2022-08-03T23:12:23.887Z,99984.22
2022-08-03T23:14:57.517Z,99987.41
2022-08-03T23:17:26.403Z,99989.81
2022-08-03T23:19:54.008Z,99997.91
2022-08-03T23:24:57.832Z,100000.75
2022-08-03T23:27:26.600Z,99992.66
2022-08-03T23:29:54.054Z,99995.94
2022-08-03T23:32:21.118Z,99995.69
